Time;durP1;ratioP1;P1;durP2;ratioP2;P2;SDS_P1;SDS_P2;PMS_P1;PMS_P2;Temp;Humidity;BMP_temperature;BMP_pressure;BME280_temperature;BME280_humidity;BME280_pressure;Samples;Min_cycle;Max_cycle;Signal;HPM_P1;HPM_P2
2022/06/12 00:00:16;;;;;;;1.47;0.90;;;19.20;95.50;;;;;;5035575;28;20474;-77
2022/06/12 00:02:43;;;;;;;1.50;0.93;;;19.20;95.30;;;;;;5033847;28;20467;-77
2022/06/12 00:05:11;;;;;;;1.43;0.90;;;19.10;95.70;;;;;;5045340;28;20513;-77
2022/06/12 00:07:38;;;;;;;1.50;0.90;;;19.10;95.50;;;;;;5025198;28;20538;-77
2022/06/12 00:10:06;;;;;;;1.50;0.90;;;19.10;95.60;;;;;;5048780;28;20462;-77
2022/06/12 00:12:35;;;;;;;1.47;0.90;;;19.00;95.30;;;;;;5037416;28;20489;-76
2022/06/12 00:15:02;;;;;;;1.50;0.90;;;19.00;95.40;;;;;;5048240;28;20556;-77
2022/06/12 00:17:30;;;;;;;1.50;0.90;;;19.00;95.50;;;;;;5048896;28;20488;-77
2022/06/12 00:19:56;;;;;;;1.47;0.90;;;18.90;96.00;;;;;;5043977;28;20493;-77
2022/06/12 00:22:24;;;;;;;1.47;0.90;;;18.90;95.50;;;;;;5022194;28;20882;-77
2022/06/12 00:24:51;;;;;;;1.50;0.90;;;18.80;95.70;;;;;;5032024;28;20478;-76
2022/06/12 00:27:18;;;;;;;1.50;0.93;;;18.80;95.40;;;;;;5020302;28;20503;-77
2022/06/12 00:29:47;;;;;;;1.50;0.90;;;18.80;95.40;;;;;;5046813;28;20545;-77
2022/06/12 00:32:16;;;;;;;1.50;1.00;;;18.70;95.60;;;;;;5041800;28;20468;-76
2022/06/12 00:34:47;;;;;;;1.50;0.90;;;18.70;95.30;;;;;;5037392;28;20459;-77
2022/06/12 00:37:14;;;;;;;1.50;1.00;;;18.60;95.70;;;;;;5031643;28;20670;-77
2022/06/12 00:39:43;;;;;;;1.47;0.90;;;18.60;95.70;;;;;;5045963;28;20458;-77
2022/06/12 00:42:20;;;;;;;1.43;0.90;;;18.50;95.50;;;;;;5039492;28;20469;-77
2022/06/12 00:44:48;;;;;;;1.43;0.90;;;18.40;95.70;;;;;;5034590;28;20471;-77
2022/06/12 00:47:16;;;;;;;1.50;0.90;;;18.40;96.40;;;;;;5037838;28;20502;-77
2022/06/12 00:49:45;;;;;;;1.47;0.93;;;18.30;96.50;;;;;;5046971;28;20727;-77
2022/06/12 00:52:17;;;;;;;1.50;0.90;;;18.30;96.50;;;;;;5026686;28;20475;-77
2022/06/12 00:54:48;;;;;;;1.47;1.00;;;18.30;96.50;;;;;;5032513;28;20484;-77
2022/06/12 00:57:17;;;;;;;1.47;1.00;;;18.20;96.10;;;;;;5032709;28;20505;-77
2022/06/12 00:59:47;;;;;;;1.47;0.90;;;18.20;96.70;;;;;;5041831;28;20494;-77
2022/06/12 01:02:19;;;;;;;1.50;1.00;;;18.10;96.40;;;;;;5040037;28;20451;-77
2022/06/12 01:07:35;;;;;;;1.50;1.00;;;18.00;97.50;;;;;;5029093;28;20560;-77
2022/06/12 01:10:06;;;;;;;1.47;0.90;;;18.00;97.60;;;;;;5048513;28;20466;-76
2022/06/12 01:12:36;;;;;;;1.50;1.00;;;18.00;97.20;;;;;;5031744;28;20739;-77
2022/06/12 01:15:08;;;;;;;1.50;0.90;;;17.90;97.00;;;;;;5040472;28;20466;-77
2022/06/12 01:17:37;;;;;;;1.50;1.00;;;17.90;97.80;;;;;;5021752;28;20561;-76
2022/06/12 01:20:09;;;;;;;1.50;1.00;;;17.80;97.80;;;;;;5038492;28;20459;-77
2022/06/12 01:23:12;;;;;;;1.47;0.90;;;17.80;98.20;;;;;;5027488;28;20490;-77
2022/06/12 01:26:02;;;;;;;1.47;0.90;;;17.80;98.20;;;;;;5043421;28;20638;-77
2022/06/12 01:28:44;;;;;;;1.50;1.17;;;17.70;98.10;;;;;;5015923;28;20754;-77
2022/06/12 01:31:34;;;;;;;1.50;0.90;;;17.70;98.20;;;;;;5040650;28;20486;-77
2022/06/12 01:34:09;;;;;;;1.50;0.90;;;17.70;98.00;;;;;;5021430;28;20485;-77
2022/06/12 01:36:45;;;;;;;1.50;0.90;;;17.70;98.20;;;;;;5024016;28;20480;-77
2022/06/12 01:39:19;;;;;;;1.47;0.90;;;17.60;98.20;;;;;;5041556;28;20458;-77
2022/06/12 01:41:53;;;;;;;1.50;1.00;;;17.60;98.20;;;;;;5029106;28;21057;-77
2022/06/12 01:44:28;;;;;;;1.43;0.90;;;17.60;98.20;;;;;;5031143;28;20471;-78
2022/06/12 01:47:00;;;;;;;1.47;0.90;;;17.50;98.20;;;;;;5035173;28;20502;-77
2022/06/12 01:49:33;;;;;;;1.50;1.00;;;17.40;98.20;;;;;;5044780;28;20473;-77
2022/06/12 01:52:05;;;;;;;1.50;0.90;;;17.40;98.20;;;;;;5033328;28;20490;-78
2022/06/12 01:54:40;;;;;;;1.50;0.90;;;17.30;98.20;;;;;;5041221;28;20896;-77
2022/06/12 01:57:14;;;;;;;1.50;1.00;;;17.30;98.20;;;;;;5038380;28;20512;-77
2022/06/12 01:59:48;;;;;;;1.50;1.00;;;17.30;98.20;;;;;;5047921;28;20476;-77
2022/06/12 02:02:20;;;;;;;1.50;0.90;;;17.20;98.20;;;;;;5025173;28;20477;-78
2022/06/12 02:04:55;;;;;;;1.50;1.10;;;17.20;98.20;;;;;;5043653;28;20473;-77
2022/06/12 02:07:26;;;;;;;1.47;0.90;;;17.10;98.20;;;;;;5033538;28;20485;-77
2022/06/12 02:10:00;;;;;;;1.50;0.90;;;17.00;98.20;;;;;;5049853;28;20579;-77
2022/06/12 02:15:23;;;;;;;1.50;1.00;;;17.00;98.20;;;;;;5033188;28;20955;-77
2022/06/12 02:17:53;;;;;;;1.50;1.00;;;16.90;98.20;;;;;;5031535;28;21064;-78
2022/06/12 02:20:24;;;;;;;1.50;0.93;;;16.90;98.20;;;;;;5045763;28;20469;-77
2022/06/12 02:22:54;;;;;;;1.50;1.00;;;16.90;98.20;;;;;;5048178;28;20462;-77
2022/06/12 02:25:25;;;;;;;1.50;1.00;;;16.90;98.20;;;;;;5032730;28;20463;-78
2022/06/12 02:27:57;;;;;;;1.50;0.97;;;16.80;98.20;;;;;;5010270;28;20484;-77
2022/06/12 02:30:31;;;;;;;1.50;1.00;;;16.80;98.20;;;;;;5048359;28;20505;-77
2022/06/12 02:33:02;;;;;;;1.50;0.97;;;16.80;98.20;;;;;;5019250;28;20880;-77
2022/06/12 02:35:39;;;;;;;1.50;0.90;;;16.70;98.20;;;;;;5036649;28;20462;-77
2022/06/12 02:38:10;;;;;;;1.47;0.97;;;16.70;98.20;;;;;;5040666;28;20855;-78
2022/06/12 02:40:44;;;;;;;1.50;0.97;;;16.60;98.20;;;;;;5034645;28;20527;-77
2022/06/12 02:43:16;;;;;;;1.50;1.10;;;16.60;98.20;;;;;;5022049;28;20501;-77
2022/06/12 02:45:50;;;;;;;1.50;1.00;;;16.50;98.20;;;;;;5040658;28;20470;-78
2022/06/12 02:48:18;;;;;;;1.50;1.00;;;16.50;98.20;;;;;;5014776;28;20576;-77
2022/06/12 02:51:04;;;;;;;1.50;1.00;;;16.40;98.20;;;;;;5040766;28;20524;-77
2022/06/12 02:53:42;;;;;;;1.50;1.00;;;16.40;98.20;;;;;;5046393;28;20943;-77
2022/06/12 02:56:16;;;;;;;1.50;1.00;;;16.40;98.20;;;;;;5024382;28;20540;-77
2022/06/12 02:58:51;;;;;;;1.50;1.00;;;16.40;98.20;;;;;;5041681;28;20450;-77
2022/06/12 03:01:26;;;;;;;1.50;0.97;;;16.40;98.20;;;;;;5049064;28;20465;-77
2022/06/12 03:03:58;;;;;;;1.50;1.00;;;16.40;98.20;;;;;;5030621;28;20463;-77
2022/06/12 03:06:27;;;;;;;1.50;1.00;;;16.30;98.20;;;;;;5021057;28;20570;-76
2022/06/12 03:08:58;;;;;;;1.50;1.00;;;16.30;98.20;;;;;;5031008;28;20455;-77
2022/06/12 03:11:27;;;;;;;1.50;0.90;;;16.30;98.20;;;;;;5031618;28;20475;-77
2022/06/12 03:13:56;;;;;;;1.50;1.00;;;16.30;98.20;;;;;;5036000;28;20463;-78
2022/06/12 03:16:27;;;;;;;1.50;0.97;;;16.20;98.20;;;;;;5027909;28;20676;-77
2022/06/12 03:18:57;;;;;;;1.50;0.90;;;16.20;98.20;;;;;;5035029;28;20533;-78
2022/06/12 03:21:32;;;;;;;1.80;1.23;;;16.20;98.20;;;;;;5026470;28;20979;-77
2022/06/12 03:24:29;;;;;;;1.50;0.90;;;16.20;98.20;;;;;;5044438;28;20545;-77
2022/06/12 03:27:06;;;;;;;1.50;1.00;;;16.20;98.20;;;;;;5038281;28;20490;-77
2022/06/12 03:29:48;;;;;;;1.50;1.00;;;16.20;98.20;;;;;;5030527;28;20826;-77
2022/06/12 03:32:22;;;;;;;1.50;1.00;;;16.20;98.20;;;;;;5024880;28;20475;-77
2022/06/12 03:34:55;;;;;;;1.50;1.00;;;16.10;98.20;;;;;;5032561;28;21025;-77
2022/06/12 03:37:30;;;;;;;1.50;0.90;;;16.10;98.20;;;;;;5025168;28;20536;-75
2022/06/12 03:40:07;;;;;;;1.50;0.90;;;16.10;98.20;;;;;;5035744;28;20484;-76
2022/06/12 03:42:50;;;;;;;1.50;1.00;;;16.10;98.20;;;;;;5034746;28;20469;-76
2022/06/12 03:45:23;;;;;;;1.50;1.00;;;16.10;98.20;;;;;;5030434;28;20982;-77
2022/06/12 03:47:56;;;;;;;1.50;1.00;;;16.10;98.20;;;;;;5016658;28;20480;-77
2022/06/12 03:50:30;;;;;;;1.50;1.00;;;16.10;98.20;;;;;;5038257;28;20558;-77
2022/06/12 03:53:06;;;;;;;1.50;0.90;;;16.10;98.20;;;;;;5022629;28;20485;-77
2022/06/12 03:58:27;;;;;;;1.50;0.90;;;16.10;98.20;;;;;;5007855;28;20490;-76
2022/06/12 04:00:56;;;;;;;1.50;0.90;;;16.10;98.20;;;;;;5033423;28;20470;-76
2022/06/12 04:03:28;;;;;;;1.50;1.00;;;16.10;98.20;;;;;;5015052;28;20648;-77
2022/06/12 04:05:58;;;;;;;1.50;1.00;;;16.10;98.20;;;;;;5020621;28;20498;-77
2022/06/12 04:08:36;;;;;;;1.50;0.90;;;16.10;98.20;;;;;;5028441;28;20491;-77
2022/06/12 04:11:04;;;;;;;1.50;0.97;;;16.10;98.20;;;;;;5018161;28;20894;-77
2022/06/12 04:13:31;;;;;;;1.50;0.90;;;16.10;98.20;;;;;;5028279;28;20948;-77
2022/06/12 04:16:04;;;;;;;1.50;0.93;;;16.20;98.20;;;;;;5036826;28;20489;-77
2022/06/12 04:18:33;;;;;;;1.50;1.00;;;16.20;98.20;;;;;;5031921;28;20456;-77
2022/06/12 04:21:07;;;;;;;1.50;0.93;;;16.20;98.20;;;;;;5028959;28;20451;-78
2022/06/12 04:23:43;;;;;;;1.50;1.00;;;16.20;98.20;;;;;;5038739;28;20473;-77
2022/06/12 04:26:18;;;;;;;1.50;0.90;;;16.30;98.20;;;;;;5035857;28;20616;-76
2022/06/12 04:28:46;;;;;;;1.47;0.90;;;16.30;98.20;;;;;;5029672;28;20493;-77
2022/06/12 04:31:16;;;;;;;1.50;1.00;;;16.30;98.20;;;;;;5016668;28;20847;-77
2022/06/12 04:33:58;;;;;;;1.50;1.00;;;16.30;98.20;;;;;;5043290;28;20462;-77
2022/06/12 04:36:25;;;;;;;1.50;0.93;;;16.30;98.20;;;;;;5048209;28;20874;-78
2022/06/12 04:38:53;;;;;;;1.47;0.93;;;16.40;98.20;;;;;;5036541;28;20461;-78
2022/06/12 04:41:25;;;;;;;1.50;1.00;;;16.40;98.20;;;;;;5024383;28;20494;-78
2022/06/12 04:43:52;;;;;;;1.50;1.00;;;16.60;98.20;;;;;;5023709;28;20470;-78
2022/06/12 04:46:19;;;;;;;1.50;1.00;;;16.60;98.20;;;;;;5038121;28;20486;-78
2022/06/12 04:48:51;;;;;;;1.50;1.03;;;16.80;98.20;;;;;;5031374;28;20519;-78
2022/06/12 04:51:18;;;;;;;1.50;0.90;;;17.10;98.20;;;;;;5038578;28;20466;-77
2022/06/12 04:53:47;;;;;;;1.50;1.00;;;17.30;98.20;;;;;;5033595;28;20458;-78
2022/06/12 04:56:15;;;;;;;1.50;0.90;;;17.50;98.20;;;;;;5022146;28;20523;-79
2022/06/12 04:58:43;;;;;;;1.50;0.90;;;17.80;98.20;;;;;;5030444;28;20467;-78
2022/06/12 05:01:11;;;;;;;1.50;0.90;;;18.00;98.20;;;;;;5021157;28;21038;-79
2022/06/12 05:03:38;;;;;;;1.50;0.97;;;18.10;98.20;;;;;;5035087;28;20478;-78
2022/06/12 05:06:07;;;;;;;1.50;0.90;;;18.30;98.20;;;;;;5023682;28;20479;-79
2022/06/12 05:08:35;;;;;;;1.50;0.90;;;18.50;97.10;;;;;;5040382;28;20491;-78
2022/06/12 05:11:02;;;;;;;1.50;0.90;;;18.60;97.60;;;;;;5049018;28;20462;-79
2022/06/12 05:13:28;;;;;;;1.50;0.90;;;18.70;97.10;;;;;;5037503;28;20467;-79
2022/06/12 05:15:56;;;;;;;1.50;0.90;;;19.00;97.20;;;;;;5019147;28;20946;-77
2022/06/12 05:18:23;;;;;;;1.50;0.90;;;19.30;96.20;;;;;;5045133;28;20450;-78
2022/06/12 05:20:50;;;;;;;1.50;0.90;;;19.50;95.40;;;;;;5029266;28;20987;-79
2022/06/12 05:23:18;;;;;;;1.50;0.90;;;19.70;94.40;;;;;;5034732;28;20463;-79
2022/06/12 05:25:46;;;;;;;1.50;0.90;;;20.00;94.00;;;;;;5027943;28;20550;-79
2022/06/12 05:28:14;;;;;;;1.50;0.90;;;20.10;93.80;;;;;;5043116;28;20485;-79
2022/06/12 05:30:42;;;;;;;1.50;0.90;;;20.40;92.80;;;;;;5031516;28;20470;-78
2022/06/12 05:33:10;;;;;;;1.50;0.90;;;20.60;92.10;;;;;;5034958;28;20524;-78
2022/06/12 05:35:37;;;;;;;1.50;0.90;;;20.60;90.90;;;;;;5035788;28;20463;-78
2022/06/12 05:38:05;;;;;;;1.50;0.90;;;20.70;91.60;;;;;;5023135;28;20566;-78
2022/06/12 05:40:35;;;;;;;1.50;0.90;;;20.80;91.10;;;;;;5030886;28;20835;-79
2022/06/12 05:43:03;;;;;;;1.50;0.90;;;21.00;91.00;;;;;;5021950;28;20481;-78
2022/06/12 05:45:32;;;;;;;1.57;1.10;;;21.20;90.40;;;;;;5037241;28;21149;-78
2022/06/12 05:48:02;;;;;;;1.50;0.90;;;21.40;89.20;;;;;;5030428;28;20906;-79
2022/06/12 05:50:32;;;;;;;1.50;1.00;;;21.50;89.40;;;;;;5044677;28;20461;-78
2022/06/12 05:52:59;;;;;;;3.40;3.10;;;21.60;88.50;;;;;;5027285;28;21196;-79
2022/06/12 05:55:27;;;;;;;1.50;0.90;;;21.70;88.50;;;;;;5046151;28;20463;-78
2022/06/12 05:57:55;;;;;;;1.50;0.90;;;21.70;88.20;;;;;;5014764;28;20482;-76
2022/06/12 06:00:25;;;;;;;1.50;0.90;;;21.80;88.10;;;;;;5027573;28;20576;-76
2022/06/12 06:02:53;;;;;;;1.50;0.90;;;21.90;88.10;;;;;;5042839;28;20559;-76
2022/06/12 06:05:20;;;;;;;1.50;0.90;;;21.90;87.80;;;;;;5037604;28;21029;-76
2022/06/12 06:07:47;;;;;;;1.50;0.90;;;22.10;88.60;;;;;;5025600;28;20565;-77
2022/06/12 06:10:17;;;;;;;1.50;0.90;;;22.20;87.50;;;;;;5041964;28;20466;-77
2022/06/12 06:12:44;;;;;;;1.60;1.10;;;22.50;87.60;;;;;;5021394;28;20478;-76
2022/06/12 06:15:13;;;;;;;1.50;0.87;;;22.70;86.80;;;;;;5032625;28;20559;-77
2022/06/12 06:17:40;;;;;;;1.50;0.90;;;22.90;86.10;;;;;;5026337;28;20871;-77
2022/06/12 06:20:10;;;;;;;1.50;0.90;;;23.00;85.90;;;;;;5037798;28;20470;-77
2022/06/12 06:22:37;;;;;;;1.50;0.90;;;23.20;85.80;;;;;;5035089;28;20462;-77
2022/06/12 06:25:04;;;;;;;1.50;0.90;;;23.40;85.80;;;;;;5027506;28;20469;-76
2022/06/12 06:27:31;;;;;;;1.50;0.90;;;23.60;85.10;;;;;;5031516;28;20536;-77
2022/06/12 06:29:58;;;;;;;1.97;1.77;;;23.80;84.60;;;;;;5026765;28;20477;-77
2022/06/12 06:32:26;;;;;;;1.50;0.90;;;23.90;84.40;;;;;;5016276;28;21182;-77
2022/06/12 06:34:53;;;;;;;1.50;0.90;;;24.10;84.60;;;;;;5027353;28;20558;-76
2022/06/12 06:37:20;;;;;;;1.50;0.90;;;24.20;83.20;;;;;;5014876;28;20488;-76
2022/06/12 06:39:47;;;;;;;1.50;0.90;;;24.30;82.20;;;;;;5026753;28;20570;-76
2022/06/12 06:42:14;;;;;;;1.50;0.90;;;24.40;82.00;;;;;;5025207;28;20763;-76
2022/06/12 06:47:26;;;;;;;1.47;0.80;;;24.40;79.60;;;;;;5028465;28;20477;-77
2022/06/12 06:49:53;;;;;;;1.47;0.90;;;24.50;79.70;;;;;;5040119;28;20553;-77
2022/06/12 06:52:20;;;;;;;1.47;0.80;;;24.50;78.80;;;;;;5011692;28;20582;-76
2022/06/12 06:54:47;;;;;;;1.50;0.90;;;24.60;78.80;;;;;;5032535;28;20459;-76
2022/06/12 06:57:15;;;;;;;1.50;0.90;;;24.70;77.60;;;;;;5043406;28;20717;-76
2022/06/12 06:59:42;;;;;;;1.50;0.90;;;24.80;78.30;;;;;;5029822;28;20549;-77
2022/06/12 07:02:11;;;;;;;1.50;0.90;;;24.90;78.20;;;;;;5024303;28;20486;-77
2022/06/12 07:04:40;;;;;;;1.50;0.90;;;25.00;77.30;;;;;;5030132;28;20463;-76
2022/06/12 07:07:09;;;;;;;1.50;0.90;;;25.10;76.70;;;;;;5036849;28;20481;-77
2022/06/12 07:09:36;;;;;;;1.70;1.33;;;25.20;75.90;;;;;;5029607;28;20491;-77
2022/06/12 07:12:04;;;;;;;1.50;0.90;;;25.30;75.90;;;;;;5025038;28;20488;-76
2022/06/12 07:14:30;;;;;;;1.50;0.90;;;25.40;74.90;;;;;;5049523;28;20465;-76
2022/06/12 07:16:57;;;;;;;1.50;0.90;;;25.50;75.40;;;;;;5046145;28;20509;-76
2022/06/12 07:19:26;;;;;;;1.47;0.90;;;25.60;74.20;;;;;;5043893;28;20455;-76
2022/06/12 07:21:54;;;;;;;1.50;0.83;;;25.70;74.20;;;;;;5025370;28;20483;-76
2022/06/12 07:24:21;;;;;;;1.50;0.90;;;25.80;74.40;;;;;;5043423;28;20837;-76
2022/06/12 07:26:49;;;;;;;1.47;0.90;;;25.80;72.70;;;;;;5026940;28;20485;-76
2022/06/12 07:29:19;;;;;;;1.43;0.80;;;25.90;71.70;;;;;;5043506;28;20516;-76
2022/06/12 07:31:47;;;;;;;1.50;0.80;;;25.90;71.30;;;;;;5046757;28;20458;-76
2022/06/12 07:34:14;;;;;;;1.47;0.93;;;26.00;71.50;;;;;;5033494;28;20471;-75
2022/06/12 07:36:43;;;;;;;1.50;0.83;;;26.10;71.90;;;;;;5048240;28;20493;-76
2022/06/12 07:39:18;;;;;;;1.50;0.87;;;26.20;71.70;;;;;;5032333;28;20463;-76
2022/06/12 07:41:47;;;;;;;1.50;0.90;;;26.20;71.10;;;;;;5020256;28;20493;-75
2022/06/12 07:44:16;;;;;;;1.40;0.90;;;26.40;71.40;;;;;;5046507;28;20538;-75
2022/06/12 07:46:43;;;;;;;1.50;0.90;;;26.50;71.50;;;;;;5048959;28;20562;-76
2022/06/12 07:49:10;;;;;;;1.53;1.10;;;26.60;71.10;;;;;;5039618;28;20488;-77
2022/06/12 07:51:37;;;;;;;1.50;0.90;;;26.70;70.30;;;;;;5034211;28;20450;-77
2022/06/12 07:54:05;;;;;;;1.50;0.90;;;26.70;68.60;;;;;;5040744;28;20467;-78
2022/06/12 07:56:33;;;;;;;1.50;0.90;;;26.80;68.90;;;;;;5041405;28;20482;-76
2022/06/12 07:59:00;;;;;;;1.40;0.90;;;26.90;68.60;;;;;;5045601;28;20454;-79
2022/06/12 08:01:29;;;;;;;1.50;0.80;;;27.00;68.60;;;;;;5036491;28;20485;-78
2022/06/12 08:03:57;;;;;;;1.50;0.80;;;27.10;69.40;;;;;;5025709;28;20469;-77
2022/06/12 08:06:25;;;;;;;1.50;0.90;;;27.10;69.60;;;;;;5038184;28;20478;-77
2022/06/12 08:08:52;;;;;;;1.43;0.80;;;27.20;67.70;;;;;;5034125;28;21251;-77
2022/06/12 08:11:21;;;;;;;1.40;0.90;;;27.20;65.90;;;;;;5023765;28;20501;-76
2022/06/12 08:13:49;;;;;;;1.47;0.90;;;27.30;66.10;;;;;;5036769;28;20704;-75
2022/06/12 08:16:17;;;;;;;1.47;0.80;;;27.40;65.60;;;;;;5039012;28;20482;-76
2022/06/12 08:18:44;;;;;;;1.43;0.80;;;27.40;65.60;;;;;;5037133;28;20493;-76
2022/06/12 08:21:13;;;;;;;1.50;0.90;;;27.40;65.70;;;;;;5034251;28;20496;-76
2022/06/12 08:23:44;;;;;;;1.40;0.80;;;27.40;65.80;;;;;;5035700;28;20469;-76
2022/06/12 08:26:14;;;;;;;1.50;0.80;;;27.40;65.40;;;;;;5016355;28;20483;-76
2022/06/12 08:28:43;;;;;;;1.47;0.80;;;27.40;65.40;;;;;;5025397;28;21079;-76
2022/06/12 08:31:15;;;;;;;1.50;0.80;;;27.50;64.60;;;;;;5038995;28;20545;-76
2022/06/12 08:33:45;;;;;;;1.50;0.80;;;27.60;66.00;;;;;;5035573;28;20472;-75
2022/06/12 08:36:16;;;;;;;1.50;0.80;;;27.60;66.40;;;;;;5024496;28;20484;-77
2022/06/12 08:38:43;;;;;;;1.40;0.80;;;27.60;65.50;;;;;;5026249;28;20485;-77
2022/06/12 08:41:15;;;;;;;1.50;0.80;;;27.70;64.60;;;;;;5034866;28;20797;-78
2022/06/12 08:43:48;;;;;;;1.70;1.37;;;28.00;65.70;;;;;;5039237;28;20476;-77
2022/06/12 08:46:23;;;;;;;1.47;0.80;;;28.00;63.30;;;;;;5022835;28;20501;-78
2022/06/12 08:48:55;;;;;;;1.47;0.80;;;28.10;65.30;;;;;;5040060;28;20485;-76
2022/06/12 08:51:27;;;;;;;1.47;0.80;;;28.20;60.80;;;;;;5023124;28;20478;-76
2022/06/12 08:53:59;;;;;;;1.50;0.90;;;28.30;61.10;;;;;;5036083;28;20542;-76
2022/06/12 08:56:32;;;;;;;1.50;0.80;;;28.30;60.50;;;;;;5028422;28;20482;-74
2022/06/12 08:59:05;;;;;;;1.47;0.80;;;28.40;60.30;;;;;;5037138;28;20925;-75
2022/06/12 09:01:35;;;;;;;1.47;0.80;;;28.40;62.00;;;;;;5017860;28;20489;-75
2022/06/12 09:04:03;;;;;;;1.47;0.80;;;28.40;60.90;;;;;;5033792;28;20466;-75
2022/06/12 09:06:42;;;;;;;1.47;0.80;;;28.50;60.60;;;;;;5018882;28;20569;-75
2022/06/12 09:09:20;;;;;;;1.47;0.80;;;28.70;61.00;;;;;;5032189;28;20930;-76
2022/06/12 09:11:49;;;;;;;1.47;0.90;;;28.80;61.20;;;;;;5023348;28;20499;-76
2022/06/12 09:14:26;;;;;;;1.47;0.80;;;28.80;60.90;;;;;;5029104;28;20539;-75
2022/06/12 09:17:02;;;;;;;1.43;0.80;;;28.90;60.10;;;;;;5035941;28;20486;-76
2022/06/12 09:19:38;;;;;;;1.47;0.80;;;29.00;62.20;;;;;;5035964;28;20462;-75
2022/06/12 09:22:12;;;;;;;1.47;0.80;;;29.00;61.80;;;;;;5040019;28;20457;-76
2022/06/12 09:24:48;;;;;;;1.43;0.80;;;29.10;62.70;;;;;;5039921;28;20614;-75
2022/06/12 09:27:25;;;;;;;1.43;0.80;;;29.20;61.30;;;;;;5028185;28;20915;-75
2022/06/12 09:30:01;;;;;;;1.43;0.80;;;29.30;61.90;;;;;;5039563;28;21156;-75
2022/06/12 09:32:43;;;;;;;1.50;1.00;;;29.50;61.00;;;;;;5033274;28;20456;-75
2022/06/12 09:35:22;;;;;;;1.47;0.80;;;29.70;60.90;;;;;;5036365;28;20467;-75
2022/06/12 09:38:19;;;;;;;1.43;0.80;;;29.70;61.60;;;;;;5025561;28;20624;-75
2022/06/12 09:41:07;;;;;;;1.43;0.80;;;29.80;59.90;;;;;;5030845;28;20466;-75
2022/06/12 09:43:40;;;;;;;1.43;0.80;;;29.90;60.80;;;;;;5029899;28;20943;-74
2022/06/12 09:46:29;;;;;;;1.50;0.80;;;30.00;60.00;;;;;;5033896;28;20481;-75
2022/06/12 09:49:02;;;;;;;1.47;0.80;;;29.90;60.50;;;;;;5034541;28;20477;-74
2022/06/12 09:51:43;;;;;;;1.47;0.80;;;29.70;62.60;;;;;;5038327;28;20494;-75
2022/06/12 09:54:28;;;;;;;1.47;0.80;;;29.70;60.10;;;;;;5033166;28;20536;-75
2022/06/12 09:57:01;;;;;;;1.47;0.80;;;29.90;60.40;;;;;;5016310;28;20571;-76
2022/06/12 09:59:33;;;;;;;1.47;0.80;;;29.90;59.40;;;;;;5023939;28;20498;-75
2022/06/12 10:02:06;;;;;;;1.43;0.80;;;29.90;61.50;;;;;;5027105;28;20481;-75
2022/06/12 10:04:43;;;;;;;1.40;0.90;;;30.00;61.60;;;;;;5025303;28;20466;-75
2022/06/12 10:07:14;;;;;;;1.47;0.80;;;30.00;60.70;;;;;;5008561;28;20653;-74
2022/06/12 10:09:46;;;;;;;1.40;0.80;;;30.20;59.40;;;;;;5026211;28;21034;-75
2022/06/12 10:12:17;;;;;;;1.43;0.80;;;30.20;60.00;;;;;;5019042;28;20485;-75
2022/06/12 10:14:47;;;;;;;1.40;0.80;;;30.40;59.70;;;;;;5029790;28;20553;-75
2022/06/12 10:17:19;;;;;;;1.50;0.80;;;30.50;59.10;;;;;;5015034;28;20490;-76
2022/06/12 10:19:53;;;;;;;1.40;0.80;;;30.50;61.20;;;;;;5032811;28;20545;-75
2022/06/12 10:22:25;;;;;;;1.43;0.80;;;30.60;58.50;;;;;;5021887;28;20257;-75
2022/06/12 10:24:52;;;;;;;1.40;0.80;;;30.90;60.70;;;;;;5033606;28;20481;-75
2022/06/12 10:27:20;;;;;;;1.47;0.80;;;31.00;59.20;;;;;;5024568;28;20247;-76
2022/06/12 10:29:50;;;;;;;1.43;0.80;;;31.10;58.30;;;;;;5031151;28;20220;-76
2022/06/12 10:32:19;;;;;;;1.43;0.80;;;31.10;58.30;;;;;;5037582;28;20215;-76
2022/06/12 10:34:47;;;;;;;1.47;0.80;;;31.20;59.90;;;;;;5037861;28;20210;-76
2022/06/12 10:37:19;;;;;;;1.43;0.80;;;31.30;59.90;;;;;;5034522;28;20319;-77
2022/06/12 10:39:46;;;;;;;1.60;1.27;;;31.30;60.10;;;;;;5036315;28;20200;-75
2022/06/12 10:42:36;;;;;;;1.43;0.80;;;31.30;59.70;;;;;;5022480;28;20232;-74
2022/06/12 10:45:21;;;;;;;1.43;0.80;;;31.40;57.90;;;;;;5031315;28;20289;-76
2022/06/12 10:47:49;;;;;;;1.47;0.80;;;31.50;58.00;;;;;;5023078;28;20236;-77
2022/06/12 10:50:22;;;;;;;1.43;0.80;;;31.60;57.90;;;;;;5035725;28;20785;-76
2022/06/12 10:52:59;;;;;;;1.50;0.80;;;31.70;56.20;;;;;;5031495;28;20218;-75
2022/06/12 10:55:49;;;;;;;1.47;0.80;;;31.80;57.80;;;;;;5038223;28;20202;-76
2022/06/12 10:58:54;;;;;;;1.40;0.80;;;31.80;58.40;;;;;;5031622;28;20215;-75
2022/06/12 11:01:29;;;;;;;1.43;0.80;;;31.80;58.10;;;;;;5021049;28;20673;-76
2022/06/12 11:04:06;;;;;;;1.43;0.80;;;31.80;59.00;;;;;;5025406;28;20238;-77
2022/06/12 11:06:44;;;;;;;1.47;0.80;;;31.80;58.50;;;;;;5037857;28;20310;-77
2022/06/12 11:09:21;;;;;;;1.43;0.80;;;31.60;57.60;;;;;;5039110;28;20237;-77
2022/06/12 11:12:02;;;;;;;1.40;0.80;;;31.70;57.90;;;;;;5022692;28;20242;-76
2022/06/12 11:14:40;;;;;;;1.47;0.80;;;31.60;57.20;;;;;;5032914;28;20706;-76
2022/06/12 11:17:21;;;;;;;1.43;0.80;;;31.60;57.90;;;;;;5013223;28;20246;-76
2022/06/12 11:20:04;;;;;;;1.47;0.80;;;31.70;58.40;;;;;;5030788;28;20226;-76
2022/06/12 11:22:52;;;;;;;1.40;0.80;;;31.80;57.20;;;;;;5019230;28;20231;-76
2022/06/12 11:25:40;;;;;;;1.47;0.80;;;31.90;57.50;;;;;;5028664;28;20211;-76
2022/06/12 11:28:28;;;;;;;1.47;0.80;;;32.00;56.40;;;;;;5024522;28;20236;-76
2022/06/12 11:31:04;;;;;;;1.47;0.80;;;32.00;57.30;;;;;;5030285;28;20832;-76
2022/06/12 11:33:59;;;;;;;1.40;0.80;;;32.00;57.30;;;;;;5031887;28;20223;-76
2022/06/12 11:36:33;;;;;;;1.43;0.80;;;32.10;58.40;;;;;;5017850;28;20250;-78
2022/06/12 11:39:17;;;;;;;1.47;0.80;;;32.10;56.70;;;;;;5031837;28;20560;-78
2022/06/12 11:42:01;;;;;;;1.45;0.80;;;32.30;57.60;;;;;;5032615;28;20754;-78
2022/06/12 11:44:45;;;;;;;1.40;0.80;;;32.10;56.00;;;;;;5035282;28;20290;-77
2022/06/12 11:47:20;;;;;;;1.47;0.80;;;32.20;56.80;;;;;;5039543;28;20226;-77
2022/06/12 11:50:00;;;;;;;1.40;0.80;;;32.30;57.50;;;;;;5043235;28;20231;-77
2022/06/12 11:52:47;;;;;;;1.40;0.80;;;32.40;55.70;;;;;;5032863;28;20781;-77
2022/06/12 11:55:28;;;;;;;1.40;0.80;;;32.00;55.40;;;;;;5029478;28;20660;-77
2022/06/12 11:58:04;;;;;;;1.43;0.80;;;31.60;54.90;;;;;;5033296;28;20513;-76
2022/06/12 12:00:40;;;;;;;1.40;0.80;;;31.60;56.10;;;;;;5030516;28;20223;-77
2022/06/12 12:03:40;;;;;;;1.40;0.80;;;31.70;58.30;;;;;;5027607;28;20485;-77
2022/06/12 12:06:30;;;;;;;1.43;0.80;;;31.80;57.60;;;;;;5017839;28;20335;-77
2022/06/12 12:09:10;;;;;;;1.40;0.80;;;32.00;55.20;;;;;;5024918;28;20571;-77
2022/06/12 12:11:43;;;;;;;1.43;0.80;;;31.90;56.80;;;;;;5017622;28;20319;-77
2022/06/12 12:14:15;;;;;;;1.40;0.80;;;32.10;55.30;;;;;;5032131;28;20200;-76
2022/06/12 12:16:44;;;;;;;1.40;0.80;;;32.20;53.60;;;;;;5023776;28;20322;-77
2022/06/12 12:19:18;;;;;;;1.40;0.80;;;32.10;55.30;;;;;;5044363;28;20660;-77
2022/06/12 12:21:52;;;;;;;1.40;0.80;;;32.20;55.00;;;;;;5038462;28;20439;-78
2022/06/12 12:24:23;;;;;;;1.40;0.80;;;32.20;58.50;;;;;;5045576;28;20290;-77
2022/06/12 12:26:52;;;;;;;1.40;0.80;;;32.10;55.70;;;;;;5023545;28;20761;-77
2022/06/12 12:29:23;;;;;;;1.40;0.80;;;32.00;57.50;;;;;;5027221;28;20204;-77
2022/06/12 12:31:52;;;;;;;1.40;0.87;;;32.20;56.60;;;;;;5018382;28;20636;-77
2022/06/12 12:34:22;;;;;;;1.40;0.80;;;32.30;57.80;;;;;;5031234;28;20687;-76
2022/06/12 12:42:42;;;;;;;1.50;0.90;;;31.60;57.40;;;;;;4999889;28;20207;-78
2022/06/12 12:45:27;;;;;;;1.47;0.80;;;31.20;57.30;;;;;;5028985;28;20281;-78
2022/06/12 12:47:58;;;;;;;1.43;0.80;;;30.70;59.00;;;;;;5027264;28;20814;-77
2022/06/12 12:50:26;;;;;;;1.47;0.80;;;30.30;60.00;;;;;;5044210;28;20683;-77
2022/06/12 12:52:56;;;;;;;1.40;0.80;;;30.20;61.10;;;;;;5030621;28;20467;-77
2022/06/12 12:55:28;;;;;;;1.50;0.80;;;30.40;60.00;;;;;;5031481;28;20466;-76
2022/06/12 12:57:58;;;;;;;1.43;0.80;;;30.60;59.90;;;;;;5030018;28;20228;-77
2022/06/12 13:00:33;;;;;;;1.43;0.80;;;30.90;58.00;;;;;;5027239;28;20607;-77
2022/06/12 13:03:04;;;;;;;1.43;0.80;;;30.90;58.70;;;;;;5017444;28;21058;-77
2022/06/12 13:05:57;;;;;;;1.40;0.80;;;31.00;59.20;;;;;;5029214;28;20212;-76
2022/06/12 13:08:40;;;;;;;1.43;0.80;;;31.00;57.90;;;;;;5000178;28;20314;-76
2022/06/12 13:11:18;;;;;;;1.40;0.80;;;31.10;58.30;;;;;;5015265;28;20474;-76
2022/06/12 13:14:05;;;;;;;1.40;0.80;;;31.20;55.80;;;;;;5020483;28;20211;-76
2022/06/12 13:16:44;;;;;;;1.40;0.80;;;31.30;57.90;;;;;;5017844;28;20708;-76
2022/06/12 13:19:29;;;;;;;1.43;0.80;;;31.30;56.10;;;;;;5034649;28;20295;-76
2022/06/12 13:22:10;;;;;;;1.40;0.80;;;31.20;59.10;;;;;;5032640;28;20203;-76
2022/06/12 13:24:39;;;;;;;1.40;0.80;;;31.20;58.00;;;;;;5042074;28;20243;-75
2022/06/12 13:27:20;;;;;;;1.43;0.80;;;31.40;55.90;;;;;;5035585;28;20266;-75
2022/06/12 13:29:51;;;;;;;1.40;0.90;;;31.50;56.40;;;;;;5027183;28;20215;-75
2022/06/12 13:32:23;;;;;;;1.40;0.80;;;31.70;54.50;;;;;;5019902;28;20247;-76